Latest Weather Observations for Leigh Creek

IDS60801

Issued at 8:31 pm CST Thursday 3 September 2015 (issued every 30 minutes, with the page automatically refreshed every 10 minutes)

About weather observations | Map of weather stations | Latest weather observations for SA | Other Formats
Station Details ID: 017110 Name: LEIGH CREEK AIRPORT Lat: -30.60 Lon: 138.42 Height: 258.8 m
Data from the previous 72 hours. | See also: Recent months at Leigh Creek
Date/Time
CST
Temp
°C
App
Temp
°C
Dew
Point
Rel
Hum
%
Delta-T
°C
Wind Press
QNH
hPa
Press
MSL
hPa
Rain
since 9 am
mm
Dir
 
Spd
km/h
Gust
km/h
Spd
kts
Gust
kts
03/08:30pm 14.4 10.7 9.4 72 2.6 SSW 19 24 10 13 1023.9 1023.5 0.0
03/08:00pm 14.7 11.8 9.7 72 2.6 S 15 22 8 12 1023.7 1023.3 0.0
03/07:30pm 14.8 13.0 9.6 71 2.7 S 9 17 5 9 1023.4 1023.0 0.0
03/07:00pm 14.8 11.4 9.2 69 2.9 S 17 22 9 12 1023.2 1022.8 0.0
03/06:30pm 15.0 12.3 9.1 68 3.0 S 13 20 7 11 1023.0 1022.6 0.0
03/06:00pm 15.1 11.7 9.2 68 3.1 SSW 17 20 9 11 1022.7 1022.3 0.0
03/05:30pm 15.4 11.4 8.9 65 3.4 SSW 20 26 11 14 1022.4 1022.0 0.0
03/05:00pm 15.7 11.2 8.7 63 3.6 SSW 22 28 12 15 1022.1 1021.7 0.0
03/04:30pm 16.1 11.2 8.6 61 3.9 SSW 24 32 13 17 1021.7 1021.3 0.0
03/04:00pm 16.3 12.4 8.8 61 3.9 S 19 24 10 13 1021.5 1021.1 0.0
03/03:30pm 16.6 12.4 8.1 57 4.3 S 20 30 11 16 1021.4 1021.0 0.0
03/03:00pm 16.3 13.2 8.8 61 3.9 SSE 15 26 8 14 1021.2 1020.8 0.0
03/02:30pm 15.9 11.0 8.6 62 3.8 S 24 33 13 18 1021.1 1020.7 0.0
03/02:00pm 16.1 11.2 8.3 60 4.0 S 24 33 13 18 1021.2 1020.8 0.0
03/01:30pm 16.9 11.3 8.6 58 4.3 SSW 28 41 15 22 1021.2 1020.8 0.0
03/01:00pm 16.7 11.0 8.4 58 4.3 SSW 28 43 15 23 1021.1 1020.7 0.0
03/12:30pm 16.2 10.4 7.9 58 4.2 S 28 39 15 21 1021.4 1021.0 0.0
03/12:00pm 15.4 10.1 8.6 64 3.5 S 26 37 14 20 1021.7 1021.3 0.0
03/11:30am 14.8 8.4 8.5 66 3.2 SSW 32 41 17 22 1021.7 1021.3 0.0
03/11:00am 13.8 8.4 8.2 69 2.8 SSW 26 39 14 21 1022.0 1021.6 0.0
03/10:30am 13.7 7.7 8.7 72 2.5 SSW 30 39 16 21 1021.8 1021.4 0.0
03/10:00am 13.1 7.5 8.6 74 2.3 S 28 41 15 22 1021.5 1021.1 0.0
03/09:30am 12.2 6.9 8.5 78 1.9 SSW 26 33 14 18 1021.4 1021.0 0.0
03/09:00am 11.3 6.0 8.3 82 1.5 S 26 39 14 21 1021.3 1020.9 4.6
03/08:30am 10.5 5.5 8.1 85 1.2 SSW 24 32 13 17 1021.0 1020.6 4.6
03/08:00am 10.1 4.7 7.9 86 1.1 SSW 26 39 14 21 1019.9 1019.5 4.6
03/07:30am 9.7 3.8 7.6 87 1.0 SSW 28 39 15 21 1019.1 1018.7 4.6
03/07:00am 9.6 3.7 7.5 87 1.0 SSW 28 39 15 21 1018.5 1018.1 4.6
03/06:30am 9.6 2.8 7.5 87 1.0 SSW 33 50 18 27 1017.7 1017.3 4.6
03/06:00am 9.8 1.8 7.6 86 1.1 SSW 39 50 21 27 1016.9 1016.4 4.6
03/05:30am 9.9 3.1 7.5 85 1.2 SSW 33 48 18 26 1016.9 1016.4 4.6
03/05:00am 10.4 3.2 7.5 82 1.4 SSW 35 50 19 27 1016.4 1016.0 4.6
03/04:30am 10.4 3.2 7.5 82 1.4 SW 35 46 19 25 1016.0 1015.6 4.6
03/04:00am 10.4 3.2 7.5 82 1.4 SW 35 48 19 26 1015.8 1015.4 4.6
03/03:30am 10.5 3.6 7.4 81 1.5 SW 33 44 18 24 1015.4 1015.0 4.6
03/03:00am 10.5 2.8 7.2 80 1.6 SW 37 54 20 29 1014.8 1014.4 4.6
03/02:30am 10.7 2.7 7.6 81 1.5 SW 39 56 21 30 1014.5 1014.1 4.6
03/02:00am 10.7 3.2 7.8 82 1.4 SW 37 54 20 29 1014.1 1013.6 4.6
03/01:45am 10.8 3.6 7.7 81 1.5 WSW 35 56 19 30 1014.0 1013.5 4.6
03/01:30am 10.8 3.7 7.9 82 1.4 WSW 35 50 19 27 1013.9 1013.4 4.6
03/01:09am 10.9 3.6 7.4 79 1.7 WSW 35 54 19 29 1013.7 1013.2 4.6
03/01:00am 11.2 3.2 7.3 77 1.9 SW 39 56 21 30 1013.9 1013.4 4.6
03/12:38am 11.5 4.2 7.2 75 2.1 SW 35 59 19 32 1014.0 1013.5 4.6
03/12:30am 11.4 4.3 7.9 79 1.7 SW 35 50 19 27 1014.3 1013.9 4.6
03/12:21am 11.4 4.6 7.9 79 1.7 SW 33 52 18 28 1014.2 1013.7 4.6
03/12:00am 11.4 5.3 8.1 80 1.6 SW 30 43 16 23 1014.0 1013.5 4.6
 
Date/Time
CST
Temp
°C
App
Temp
°C
Dew
Point
Rel
Hum
%
Delta-T
°C
Wind Press
QNH
hPa
Press
MSL
hPa
Rain
since 9 am
mm
Dir
 
Spd
km/h
Gust
km/h
Spd
kts
Gust
kts
02/11:30pm 11.3 4.3 8.3 82 1.5 SW 35 46 19 25 1013.8 1013.3 4.6
02/11:08pm 11.6 5.4 9.2 85 1.2 WSW 32 50 17 27 1013.4 1012.9 4.4
02/11:00pm 11.6 5.5 9.9 89 0.9 SW 32 46 17 25 1013.4 1012.9 4.4
02/10:42pm 11.7 5.6 9.8 88 1.0 WSW 32 50 17 27 1013.0 1012.5 4.4
02/10:30pm 11.7 5.0 9.8 88 1.0 WSW 35 46 19 25 1012.8 1012.3 4.4
02/10:00pm 11.5 4.5 10.1 91 0.7 WSW 37 61 20 33 1012.6 1012.1 4.4
02/09:57pm 11.5 4.9 9.9 90 0.8 WSW 35 61 19 33 1012.5 1012.0 4.2
02/09:56pm 11.5 5.3 10.1 91 0.7 WSW 33 50 18 27 1012.3 1011.9 4.2
02/09:33pm 11.7 3.6 10.1 90 0.8 W 43 61 23 33 1012.1 1011.7 3.0
02/09:30pm 11.8 4.1 10.0 89 0.9 W 41 57 22 31 1012.1 1011.7 2.8
02/09:00pm 12.8 4.3 9.1 78 1.9 W 44 65 24 35 1011.6 1011.2 2.2
02/08:30pm 12.1 5.3 9.3 83 1.4 W 35 57 19 31 1011.5 1011.1 2.2
02/08:01pm 13.5 5.7 8.1 70 2.7 W 39 57 21 31 1011.1 1010.7 2.2
02/08:00pm 13.5 5.3 8.4 71 2.6 W 41 57 22 31 1011.0 1010.6 2.2
02/07:46pm 13.5 5.8 8.6 72 2.5 W 39 63 21 34 1010.9 1010.4 2.0
02/07:30pm 13.2 6.0 9.1 76 2.1 W 37 52 20 28 1010.9 1010.4 2.0
02/07:00pm 12.5 5.8 9.7 83 1.4 W 35 54 19 29 1010.7 1010.2 2.0
02/06:36pm 13.2 7.4 9.3 77 2.0 W 30 50 16 27 1010.3 1009.8 1.6
02/06:30pm 13.6 8.0 8.9 73 2.4 W 28 43 15 23 1010.0 1009.5 1.6
02/06:00pm 13.6 6.3 8.7 72 2.5 W 37 57 20 31 1009.9 1009.4 1.6
02/05:43pm 13.7 6.7 8.3 70 2.7 W 35 56 19 30 1009.6 1009.1 1.6
02/05:30pm 13.9 7.3 8.7 71 2.7 WNW 33 43 18 23 1009.5 1009.0 1.6
02/05:00pm 12.7 7.0 9.7 82 1.6 W 30 41 16 22 1009.2 1008.7 1.6
02/04:30pm 12.0 5.4 9.9 87 1.1 W 35 59 19 32 1009.4 1008.9 1.4
02/04:12pm 14.0 8.3 8.2 68 2.9 W 28 50 15 27 1009.2 1008.7 0.0
02/04:00pm 15.3 8.3 6.1 54 4.5 WNW 32 44 17 24 1008.9 1008.4 0.0
02/03:31pm 15.3 9.0 5.5 52 4.7 W 28 48 15 26 1009.1 1008.6 0.0
02/03:30pm 15.4 9.5 5.6 52 4.8 W 26 41 14 22 1009.1 1008.6 0.0
02/03:00pm 15.5 8.3 5.1 50 5.0 W 32 43 17 23 1009.2 1008.7 0.0
02/02:35pm 15.5 8.0 4.5 48 5.2 W 33 52 18 28 1009.3 1008.8 0.0
02/02:30pm 15.7 8.2 4.4 47 5.4 W 33 46 18 25 1009.3 1008.8 0.0
02/02:10pm 15.4 7.5 4.2 47 5.3 W 35 54 19 29 1009.3 1008.8 0.0
02/02:00pm 15.5 8.3 4.8 49 5.1 W 32 41 17 22 1009.3 1008.8 0.0
02/01:30pm 15.0 8.5 4.7 50 4.9 W 28 44 15 24 1009.4 1008.9 0.0
02/01:00pm 15.5 8.6 4.8 49 5.1 W 30 41 16 22 1009.8 1009.3 0.0
02/12:35pm 15.3 8.7 4.4 48 5.1 WNW 28 46 15 25 1010.2 1009.7 0.0
02/12:30pm 15.5 8.9 4.2 47 5.3 W 28 41 15 22 1010.2 1009.7 0.0
02/12:00pm 14.2 7.5 3.9 50 4.8 WNW 28 39 15 21 1010.6 1010.1 0.0
02/11:30am 13.9 7.3 4.2 52 4.5 W 28 43 15 23 1011.1 1010.7 0.0
02/11:00am 14.3 8.1 4.3 51 4.7 W 26 35 14 19 1011.3 1010.9 0.0
02/10:30am 13.7 7.4 4.0 52 4.5 W 26 37 14 20 1011.4 1011.0 0.0
02/10:00am 13.0 7.1 3.7 53 4.2 WSW 24 32 13 17 1011.4 1011.0 0.0
02/09:30am 12.6 7.4 3.8 55 4.0 W 20 32 11 17 1011.3 1010.9 0.0
02/09:00am 12.2 6.6 5.4 63 3.2 W 24 32 13 17 1010.8 1010.3 2.0
02/08:30am 11.4 6.2 5.7 68 2.7 W 22 30 12 16 1010.7 1010.2 2.0
02/08:00am 11.2 7.1 6.1 71 2.4 WSW 17 26 9 14 1010.6 1010.1 2.0
02/07:30am 10.9 6.5 7.4 79 1.7 WSW 20 30 11 16 1010.6 1010.1 2.0
02/07:00am 10.0 7.5 8.4 90 0.8 S 11 13 6 7 1010.4 1009.9 2.0
02/06:30am 10.0 7.9 8.4 90 0.8 S 9 11 5 6 1009.9 1009.4 2.0
02/06:00am 10.1 8.4 8.2 88 0.9 S 7 11 4 6 1009.7 1009.2 2.0
02/05:30am 10.0 7.8 7.8 86 1.1 SSE 9 11 5 6 1008.8 1008.3 2.0
02/05:00am 10.2 6.8 7.6 84 1.3 SW 15 17 8 9 1009.4 1008.9 2.0
02/04:30am 11.0 7.2 7.5 79 1.7 WSW 17 20 9 11 1009.1 1008.6 1.8
02/04:00am 9.5 7.6 6.9 84 1.2 SW 6 9 3 5 1008.3 1007.9 1.8
02/03:30am 10.1 6.9 7.0 81 1.5 W 13 17 7 9 1009.1 1008.6 1.8
02/03:00am 9.9 6.7 6.8 81 1.5 SW 13 17 7 9 1009.4 1008.9 1.8
02/02:30am 9.2 6.8 6.8 85 1.1 SSW 9 13 5 7 1009.3 1008.8 1.8
02/02:00am 10.4 8.1 7.5 82 1.4 ESE 9 11 5 6 1009.1 1008.6 1.8
02/01:30am 11.0 8.8 7.7 80 1.6 NW 9 11 5 6 1009.6 1009.1 1.6
02/01:00am 13.9 7.7 4.5 53 4.4 WNW 26 44 14 24 1010.6 1010.1 0.8
02/12:40am 15.6 7.7 2.4 41 6.0 N 33 48 18 26 1009.4 1008.9 0.8
02/12:30am 16.1 7.1 2.5 40 6.2 NNE 39 48 21 26 1007.9 1007.5 0.8
02/12:03am 15.4 6.7 1.9 40 6.0 NNE 37 56 20 30 1007.9 1007.5 0.8
02/12:00am 15.6 6.5 1.7 39 6.2 NNE 39 56 21 30 1007.9 1007.5 0.8
 
Date/Time
CST
Temp
°C
App
Temp
°C
Dew
Point
Rel
Hum
%
Delta-T
°C
Wind Press
QNH
hPa
Press
MSL
hPa
Rain
since 9 am
mm
Dir
 
Spd
km/h
Gust
km/h
Spd
kts
Gust
kts
01/11:40pm 15.8 8.0 2.6 41 6.0 NNE 33 52 18 28 1008.2 1007.8 0.8
01/11:30pm 15.6 7.9 2.1 40 6.1 NNE 32 43 17 23 1008.3 1007.9 0.8
01/11:00pm 15.5 9.0 0.5 36 6.5 NNE 24 35 13 19 1008.8 1008.3 0.8
01/10:30pm 15.4 7.7 0.0 35 6.6 NNE 30 43 16 23 1009.5 1009.0 0.8
01/10:00pm 15.1 8.7 0.9 38 6.2 NNE 24 33 13 18 1009.5 1009.0 0.8
01/09:30pm 14.3 7.2 1.2 41 5.7 NNE 28 37 15 20 1009.6 1009.1 0.8
01/09:00pm 14.0 7.3 1.6 43 5.5 NNE 26 33 14 18 1010.2 1009.7 0.8
01/08:30pm 13.9 7.1 0.9 41 5.6 NNE 26 33 14 18 1009.8 1009.3 0.8
01/08:00pm 13.6 7.2 0.9 42 5.5 NNE 24 30 13 16 1009.8 1009.3 0.8
01/07:30pm 13.6 7.5 0.6 41 5.6 NNE 22 32 12 17 1010.1 1009.6 0.8
01/07:00pm 13.7 6.5 0.4 40 5.7 N 28 35 15 19 1009.7 1009.2 0.8
01/06:30pm 13.9 5.9 0.2 39 5.8 NNE 32 41 17 22 1009.5 1009.0 0.8
01/06:00pm 14.8 6.2 -0.1 36 6.4 NNE 35 46 19 25 1009.4 1008.9 0.8
01/05:30pm 15.7 6.4 0.7 36 6.6 NNE 39 50 21 27 1009.6 1009.1 0.8
01/05:00pm 16.9 8.1 1.4 35 7.0 NNE 37 50 20 27 1009.7 1009.2 0.8
01/04:30pm 16.6 9.5 1.5 36 6.8 NNE 28 46 15 25 1009.6 1009.1 0.8
01/04:28pm 16.6 9.5 1.5 36 6.8 NNE 28 46 15 25 1009.6 1009.1 0.8
01/04:00pm 16.3 9.6 1.2 36 6.7 NE 26 41 14 22 1009.7 1009.2 0.8
01/03:30pm 16.1 10.2 1.4 37 6.6 NNE 22 30 12 16 1010.3 1009.8 0.8
01/03:00pm 16.0 8.7 0.2 34 6.9 NNE 28 39 15 21 1010.9 1010.4 0.8
01/02:30pm 15.9 7.8 0.9 36 6.6 NNE 33 43 18 23 1011.3 1010.9 0.8
01/02:00pm 15.6 7.7 1.3 38 6.3 NNE 32 43 17 23 1012.1 1011.7 0.8
01/01:30pm 15.5 7.7 2.0 40 6.1 NNE 32 43 17 23 1012.5 1012.0 0.8
01/01:00pm 14.8 8.4 3.0 45 5.4 NNE 26 35 14 19 1013.5 1013.0 0.8
01/12:30pm 13.9 8.6 4.8 54 4.3 NNE 22 28 12 15 1014.1 1013.6 0.8
01/12:00pm 12.8 8.0 5.5 61 3.5 NNE 20 28 11 15 1014.5 1014.1 0.6
01/11:30am 12.9 8.0 5.1 59 3.7 NNE 20 26 11 14 1015.5 1015.1 0.6
01/11:00am 11.7 7.0 6.2 69 2.6 NNE 20 26 11 14 1015.7 1015.3 0.6
01/10:30am 10.8 6.2 6.6 75 2.0 N 20 26 11 14 1016.0 1015.6 0.4
01/10:00am 13.1 6.1 1.8 46 4.9 N 28 39 15 21 1015.9 1015.5 0.0
01/09:30am 14.5 7.0 -1.6 33 6.6 N 28 41 15 22 1015.6 1015.2 0.0
01/09:00am 14.8 7.2 -2.1 31 6.9 N 28 37 15 20 1015.6 1015.6 0.0
01/08:30am 15.1 6.6 -3.3 28 7.3 NNE 32 41 17 22 1015.4 1015.4 0.0
01/08:00am 15.1 7.4 -3.3 28 7.3 NNE 28 41 15 22 1015.0 1015.0 0.0
01/07:30am 14.8 7.5 -3.0 29 7.1 NNE 26 33 14 18 1015.1 1015.1 0.0
01/07:00am 13.8 7.2 -3.0 31 6.7 NNE 22 28 12 15 1015.1 1015.1 0.0
01/06:30am 13.2 7.1 -2.7 33 6.3 NNE 20 26 11 14 1015.0 1015.0 0.0
01/06:00am 12.7 7.2 -2.3 35 6.0 NNE 17 20 9 11 1015.0 1015.0 0.0
01/05:30am 11.2 7.0 -1.2 42 5.0 N 11 13 6 7 1015.2 1015.2 0.0
01/05:00am 11.2 7.7 -1.2 42 5.0 N 7 11 4 6 1015.2 1015.2 0.0
01/04:30am 11.5 7.5 -2.0 39 5.3 N 9 11 5 6 1015.0 1015.0 0.0
01/04:00am 11.8 8.8 -1.7 39 5.4 ENE 4 9 2 5 1015.4 1015.4 0.0
01/03:30am 11.1 7.8 -1.3 42 5.0 E 6 9 3 5 1015.3 1015.3 0.0
01/03:00am 10.1 8.0 -1.0 46 4.4 CALM 0 0 0 0 1015.8 1015.8 0.0
01/02:30am 9.9 6.7 -0.6 48 4.2 E 6 9 3 5 1016.2 1016.2 0.0
01/02:00am 11.2 7.9 -1.2 42 5.0 E 6 9 3 5 1016.6 1016.5 0.0
01/01:30am 10.4 7.7 0.4 50 4.1 E 4 7 2 4 1017.1 1017.0 0.0
01/01:00am 11.8 8.3 -1.7 39 5.4 E 7 9 4 5 1017.2 1017.1 0.0
01/12:30am 10.9 9.0 0.3 48 4.4 CALM 0 0 0 0 1017.3 1017.2 0.0
01/12:00am 11.0 9.2 1.0 50 4.2 CALM 0 0 0 0 1017.3 1017.2 0.0
 
Date/Time
CST
Temp
°C
App
Temp
°C
Dew
Point
Rel
Hum
%
Delta-T
°C
Wind Press
QNH
hPa
Press
MSL
hPa
Rain
since 9 am
mm
Dir
 
Spd
km/h
Gust
km/h
Spd
kts
Gust
kts
31/11:30pm 10.7 9.0 1.8 54 3.8 CALM 0 0 0 0 1017.5 1017.5 0.0
31/11:00pm 11.0 9.0 2.1 54 3.8 E 2 6 1 3 1017.9 1017.9 0.0
31/10:30pm 11.2 9.6 2.5 55 3.8 CALM 0 0 0 0 1018.3 1018.3 0.0
31/10:00pm 11.6 8.3 2.4 53 4.0 ESE 9 13 5 7 1018.4 1018.4 0.0
31/09:30pm 11.9 9.0 2.6 53 4.1 ESE 7 9 4 5 1018.2 1018.2 0.0
31/09:00pm 12.5 8.4 2.4 50 4.4 NNW 13 13 7 7 1018.1 1018.1 0.0

Other Formats:

Comma delimited format used in spreadsheet applications
http://www.bom.gov.au/fwo/IDS60801/IDS60801.94674.axf

JavaScript Object Notation format (JSON) in row-major order
http://www.bom.gov.au/fwo/IDS60801/IDS60801.94674.json